Time;durP1;ratioP1;P1;durP2;ratioP2;P2;SDS_P1;SDS_P2;PMS_P1;PMS_P2;Temp;Humidity;BMP_temperature;BMP_pressure;BME280_temperature;BME280_humidity;BME280_pressure;Samples;Min_cycle;Max_cycle;Signal;HPM_P1;HPM_P2
2023/04/24 00:00:14;;;;;;;5.53;2.15;;;11.60;99.90;;;;;;5012273;28;20463;-72
2023/04/24 00:02:46;;;;;;;4.68;1.90;;;11.50;99.90;;;;;;4999320;28;20049;-71
2023/04/24 00:05:15;;;;;;;4.93;1.60;;;11.40;99.90;;;;;;4995110;28;20242;-72
2023/04/24 00:07:41;;;;;;;3.05;1.90;;;11.40;99.90;;;;;;5020833;28;20049;-72
2023/04/24 00:10:08;;;;;;;2.63;1.60;;;11.40;99.90;;;;;;5011312;28;20080;-72
2023/04/24 00:12:34;;;;;;;2.72;1.38;;;11.40;99.90;;;;;;4998094;28;20396;-71
2023/04/24 00:15:08;;;;;;;1.75;1.27;;;11.40;99.90;;;;;;5002668;28;20048;-71
2023/04/24 00:17:34;;;;;;;2.65;1.60;;;11.30;99.90;;;;;;4984575;28;20073;-71
2023/04/24 00:20:01;;;;;;;2.90;1.70;;;11.30;99.90;;;;;;5015476;28;20068;-71
2023/04/24 00:22:33;;;;;;;4.78;1.92;;;11.40;99.90;;;;;;4983326;28;20551;-72
2023/04/24 00:24:59;;;;;;;2.33;1.40;;;11.30;99.90;;;;;;5000757;28;20053;-71
2023/04/24 00:27:25;;;;;;;2.70;1.50;;;11.20;99.90;;;;;;5009404;28;20052;-71
2023/04/24 00:29:59;;;;;;;3.43;2.00;;;11.30;99.90;;;;;;5015597;28;20041;-72
2023/04/24 00:32:27;;;;;;;2.63;1.67;;;11.20;99.90;;;;;;5000305;28;20084;-73
2023/04/24 00:34:52;;;;;;;3.85;2.03;;;11.20;99.90;;;;;;5001263;28;20041;-71
2023/04/24 00:37:18;;;;;;;2.70;1.90;;;11.10;99.90;;;;;;4993951;28;20509;-78
2023/04/24 00:39:44;;;;;;;2.70;1.60;;;11.10;99.90;;;;;;4999929;28;20540;-77
2023/04/24 00:42:09;;;;;;;2.40;1.80;;;11.10;99.90;;;;;;4996455;28;20065;-74
2023/04/24 00:44:35;;;;;;;3.27;2.13;;;11.00;99.90;;;;;;5015234;28;20819;-78
2023/04/24 00:47:01;;;;;;;4.17;2.07;;;11.00;99.90;;;;;;5000996;28;20042;-78
2023/04/24 00:49:27;;;;;;;2.42;1.77;;;11.00;99.90;;;;;;5005402;28;20297;-77
2023/04/24 00:51:53;;;;;;;2.92;1.95;;;11.00;99.90;;;;;;5004288;28;20125;-78
2023/04/24 00:54:19;;;;;;;3.75;2.10;;;11.00;99.90;;;;;;5005571;28;20038;-77
2023/04/24 00:56:45;;;;;;;3.63;2.20;;;11.00;99.90;;;;;;4999457;28;20076;-72
2023/04/24 00:59:16;;;;;;;4.60;2.15;;;11.00;99.90;;;;;;5004956;28;20029;-71
2023/04/24 01:01:43;;;;;;;2.60;1.80;;;11.00;99.90;;;;;;5005523;28;20507;-71
2023/04/24 01:04:11;;;;;;;;;;;10.90;99.90;;;;;;5000750;28;20041;-71
2023/04/24 01:06:39;;;;;;;3.97;1.67;;;10.90;99.90;;;;;;4998490;28;19932;-71
2023/04/24 01:09:09;;;;;;;2.50;1.45;;;10.80;99.90;;;;;;4984588;28;20474;-71
2023/04/24 01:11:37;;;;;;;4.90;2.28;;;10.80;99.90;;;;;;5024589;28;20180;-71
2023/04/24 01:14:02;;;;;;;4.13;1.98;;;10.70;99.90;;;;;;5011698;28;20049;-71
2023/04/24 01:16:28;;;;;;;3.13;1.77;;;10.80;99.90;;;;;;5002656;28;20137;-71
2023/04/24 01:18:56;;;;;;;3.42;2.05;;;10.70;99.90;;;;;;5014673;28;20053;-71
2023/04/24 01:21:27;;;;;;;3.03;1.90;;;10.70;99.90;;;;;;5003427;28;20034;-71
2023/04/24 01:23:53;;;;;;;3.20;1.60;;;10.70;99.90;;;;;;5001747;28;20046;-71
2023/04/24 01:26:19;;;;;;;5.00;2.22;;;10.70;99.90;;;;;;5021620;28;20037;-71
2023/04/24 01:28:46;;;;;;;2.72;1.75;;;10.70;99.90;;;;;;4985022;28;20549;-71
2023/04/24 01:31:11;;;;;;;2.78;1.80;;;10.70;99.90;;;;;;5002247;28;20076;-70
2023/04/24 01:33:37;;;;;;;2.60;1.50;;;10.70;99.90;;;;;;5026397;28;20125;-70
2023/04/24 01:36:03;;;;;;;5.13;1.60;;;10.60;99.90;;;;;;4992523;28;20045;-71
2023/04/24 01:38:29;;;;;;;3.13;1.58;;;10.60;99.90;;;;;;5008107;28;20069;-71
2023/04/24 01:40:54;;;;;;;2.90;1.30;;;10.60;99.90;;;;;;5021831;28;20041;-71
2023/04/24 01:43:20;;;;;;;2.00;1.43;;;10.60;99.90;;;;;;5003928;28;20041;-71
2023/04/24 01:45:46;;;;;;;2.72;1.65;;;10.60;99.90;;;;;;5012617;28;20052;-71
2023/04/24 01:48:12;;;;;;;2.53;1.73;;;10.60;99.90;;;;;;5018979;28;20136;-71
2023/04/24 01:50:38;;;;;;;4.45;1.58;;;10.60;99.90;;;;;;5019000;28;20064;-72
2023/04/24 01:53:04;;;;;;;2.10;1.13;;;10.70;99.90;;;;;;5006271;28;20088;-72
2023/04/24 01:55:30;;;;;;;2.20;1.60;;;10.60;99.90;;;;;;5004275;28;20060;-72
2023/04/24 01:57:56;;;;;;;2.17;1.45;;;10.60;99.90;;;;;;5008966;28;20045;-72
2023/04/24 02:00:22;;;;;;;2.15;1.48;;;10.60;99.90;;;;;;5021982;28;20046;-72
2023/04/24 02:02:50;;;;;;;2.70;1.73;;;10.70;99.90;;;;;;5005558;28;20049;-72
2023/04/24 02:05:16;;;;;;;3.55;1.77;;;10.60;99.90;;;;;;5005689;28;20045;-71
2023/04/24 02:07:42;;;;;;;3.00;2.00;;;10.70;99.90;;;;;;5008150;28;20617;-72
2023/04/24 02:10:11;;;;;;;2.20;1.77;;;10.60;99.90;;;;;;4987227;28;20053;-72
2023/04/24 02:12:36;;;;;;;2.90;1.92;;;10.70;99.90;;;;;;5020734;28;20076;-72
2023/04/24 02:15:02;;;;;;;3.17;2.00;;;10.70;99.90;;;;;;5003100;28;20073;-72
2023/04/24 02:17:31;;;;;;;3.00;2.13;;;10.70;99.90;;;;;;5020770;28;20096;-72
2023/04/24 02:19:59;;;;;;;3.15;1.95;;;10.70;99.90;;;;;;5009036;28;20487;-72
2023/04/24 02:22:24;;;;;;;3.13;2.03;;;10.70;99.90;;;;;;5002156;28;20129;-72
2023/04/24 02:24:50;;;;;;;2.90;2.07;;;10.70;99.90;;;;;;5018727;28;20133;-72
2023/04/24 02:27:15;;;;;;;3.43;2.30;;;10.70;99.90;;;;;;4998586;28;20415;-72
2023/04/24 02:29:41;;;;;;;3.73;2.40;;;10.70;99.90;;;;;;5003883;28;20444;-71
2023/04/24 02:32:07;;;;;;;3.60;2.53;;;10.70;99.90;;;;;;5019296;28;20051;-72
2023/04/24 02:34:34;;;;;;;4.63;2.63;;;10.70;99.90;;;;;;4998444;28;20752;-72
2023/04/24 02:37:00;;;;;;;4.35;2.55;;;10.70;99.90;;;;;;5001812;28;20044;-72
2023/04/24 02:39:26;;;;;;;4.27;2.77;;;10.70;99.90;;;;;;4998367;28;20949;-72
2023/04/24 02:41:51;;;;;;;4.73;2.97;;;10.70;99.90;;;;;;5004792;28;20040;-72
2023/04/24 02:44:17;;;;;;;4.40;3.10;;;10.70;99.90;;;;;;4998152;28;20034;-72
2023/04/24 02:46:43;;;;;;;5.60;3.42;;;10.70;99.90;;;;;;5028443;22;20201;-69
2023/04/24 02:49:09;;;;;;;4.80;3.08;;;10.70;99.90;;;;;;5042812;28;20048;-69
2023/04/24 02:51:34;;;;;;;4.80;3.17;;;10.70;99.90;;;;;;5050180;28;20032;-69
2023/04/24 02:54:00;;;;;;;8.53;3.37;;;10.70;99.90;;;;;;5050261;28;20403;-67
2023/04/24 02:56:25;;;;;;;4.97;3.30;;;10.70;99.90;;;;;;5066068;28;20112;-69
2023/04/24 02:58:51;;;;;;;5.30;3.60;;;10.70;99.90;;;;;;5047487;28;20090;-69
2023/04/24 03:01:17;;;;;;;6.20;4.17;;;10.70;99.90;;;;;;5034013;28;20554;-69
2023/04/24 03:03:43;;;;;;;4.20;3.17;;;10.70;99.90;;;;;;5048019;28;20056;-69
2023/04/24 03:06:08;;;;;;;5.10;3.70;;;10.70;99.90;;;;;;5041736;28;20055;-69
2023/04/24 03:08:35;;;;;;;5.07;3.73;;;10.70;99.90;;;;;;5061761;28;20379;-69
2023/04/24 03:11:00;;;;;;;6.32;4.25;;;10.70;99.90;;;;;;5048251;28;21032;-68
2023/04/24 03:13:26;;;;;;;5.43;3.70;;;10.70;99.90;;;;;;5065380;28;20212;-69
2023/04/24 03:15:52;;;;;;;6.25;3.78;;;10.70;99.90;;;;;;5031773;28;20505;-69
2023/04/24 03:18:18;;;;;;;7.50;4.35;;;10.70;99.90;;;;;;5056200;28;20411;-69
2023/04/24 03:20:46;;;;;;;7.07;4.80;;;10.70;99.90;;;;;;5065871;28;20036;-69
2023/04/24 03:23:12;;;;;;;8.30;4.07;;;10.70;99.90;;;;;;5030032;28;20040;-69
2023/04/24 03:25:37;;;;;;;6.67;4.40;;;10.70;99.90;;;;;;5066429;28;20040;-69
2023/04/24 03:28:03;;;;;;;7.73;4.53;;;10.70;99.90;;;;;;5048865;28;20453;-69
2023/04/24 03:30:28;;;;;;;8.83;4.67;;;10.70;99.90;;;;;;5039462;28;20084;-69
2023/04/24 03:32:54;;;;;;;8.50;4.70;;;10.70;99.90;;;;;;5060454;28;20063;-68
2023/04/24 03:35:21;;;;;;;6.77;4.40;;;10.70;99.90;;;;;;5029008;28;20040;-69
2023/04/24 03:37:47;;;;;;;7.53;4.65;;;10.70;99.90;;;;;;5042702;28;20037;-68
2023/04/24 03:40:13;;;;;;;6.37;4.30;;;10.70;99.90;;;;;;5047190;28;20049;-69
2023/04/24 03:42:38;;;;;;;4.40;2.60;;;10.70;99.90;;;;;;5036677;28;20155;-69
2023/04/24 03:45:05;;;;;;;3.83;2.50;;;10.70;99.90;;;;;;5041389;28;20303;-69
2023/04/24 03:47:31;;;;;;;3.42;2.00;;;10.70;99.90;;;;;;5042270;28;20273;-67
2023/04/24 03:49:56;;;;;;;2.20;1.37;;;10.70;99.90;;;;;;5028878;28;20490;-69
2023/04/24 03:52:22;;;;;;;2.20;1.30;;;10.70;99.90;;;;;;5051707;28;20056;-69
2023/04/24 03:54:47;;;;;;;3.03;1.20;;;10.70;99.90;;;;;;5045844;28;20500;-68
2023/04/24 03:57:13;;;;;;;1.87;0.90;;;10.70;99.90;;;;;;5055794;28;20029;-69
2023/04/24 03:59:39;;;;;;;1.20;0.70;;;10.70;99.90;;;;;;5071889;28;20078;-69
2023/04/24 04:02:04;;;;;;;1.03;0.57;;;10.70;99.90;;;;;;5036548;28;20075;-69
2023/04/24 04:04:30;;;;;;;1.65;0.63;;;10.70;99.90;;;;;;5043383;28;20045;-69
2023/04/24 04:06:56;;;;;;;0.80;0.40;;;10.60;99.90;;;;;;5037554;28;20512;-68
2023/04/24 04:09:21;;;;;;;1.43;0.50;;;10.70;99.90;;;;;;5023102;28;20040;-69
2023/04/24 04:11:49;;;;;;;0.70;0.30;;;10.70;99.90;;;;;;5041522;28;20048;-69
2023/04/24 04:14:15;;;;;;;1.40;0.60;;;10.70;99.90;;;;;;5041077;28;20157;-69
2023/04/24 04:16:41;;;;;;;0.83;0.40;;;10.70;99.90;;;;;;5054245;28;20151;-69
2023/04/24 04:19:07;;;;;;;0.90;0.57;;;10.70;99.90;;;;;;5052197;28;20045;-69
2023/04/24 04:21:32;;;;;;;0.80;0.50;;;10.60;99.90;;;;;;5026749;28;20748;-70
2023/04/24 04:23:58;;;;;;;0.73;0.47;;;10.60;99.90;;;;;;5045973;28;20045;-69
2023/04/24 04:26:27;;;;;;;3.83;0.88;;;10.60;99.90;;;;;;5044771;28;20214;-68
2023/04/24 04:28:55;;;;;;;1.95;0.88;;;10.60;99.90;;;;;;5019634;28;20053;-69
2023/04/24 04:31:21;;;;;;;0.90;0.50;;;10.60;99.90;;;;;;5033990;28;20048;-69
2023/04/24 04:33:49;;;;;;;1.50;0.80;;;10.60;99.90;;;;;;5062966;28;20056;-68
2023/04/24 04:36:17;;;;;;;1.65;0.90;;;10.60;99.90;;;;;;5044258;28;20148;-69
2023/04/24 04:38:44;;;;;;;1.58;0.90;;;10.60;99.90;;;;;;5022427;28;20049;-69
2023/04/24 04:41:10;;;;;;;1.30;0.80;;;10.60;99.90;;;;;;5032416;28;20050;-69
2023/04/24 04:43:36;;;;;;;2.40;1.17;;;10.60;99.90;;;;;;5053875;28;20078;-69
2023/04/24 04:46:03;;;;;;;1.55;0.90;;;10.60;99.90;;;;;;5068360;28;20658;-69
2023/04/24 04:48:31;;;;;;;1.77;1.13;;;10.50;99.90;;;;;;5048543;28;20504;-68
2023/04/24 04:50:57;;;;;;;2.00;1.15;;;10.50;99.90;;;;;;5063378;28;20045;-69
2023/04/24 04:53:22;;;;;;;1.50;0.77;;;10.50;99.90;;;;;;5046867;28;20123;-69
2023/04/24 04:55:48;;;;;;;2.00;1.13;;;10.50;99.90;;;;;;5034565;28;20131;-68
2023/04/24 04:58:14;;;;;;;3.30;1.03;;;10.50;99.90;;;;;;5042130;28;20139;-69
2023/04/24 05:00:39;;;;;;;8.20;1.40;;;10.50;99.90;;;;;;5043147;28;20076;-69
2023/04/24 05:03:05;;;;;;;3.07;1.97;;;10.40;99.90;;;;;;5047472;28;20047;-69
2023/04/24 05:05:31;;;;;;;3.42;1.60;;;10.50;99.90;;;;;;5046210;28;20059;-68
2023/04/24 05:07:57;;;;;;;2.47;1.60;;;10.40;99.90;;;;;;5013594;28;20044;-69
2023/04/24 05:10:22;;;;;;;2.53;1.70;;;10.40;99.90;;;;;;5048994;28;20140;-67
2023/04/24 05:12:49;;;;;;;4.88;1.42;;;10.40;99.90;;;;;;5025417;28;20582;-69
2023/04/24 05:15:15;;;;;;;3.60;1.83;;;10.40;99.90;;;;;;5036289;28;20052;-69
2023/04/24 05:17:40;;;;;;;4.70;1.60;;;10.40;99.90;;;;;;5038722;28;20037;-70
2023/04/24 05:20:07;;;;;;;3.88;2.10;;;10.40;99.90;;;;;;5028385;28;20304;-70
2023/04/24 05:22:32;;;;;;;5.53;1.92;;;10.40;99.90;;;;;;5047286;28;20039;-69
2023/04/24 05:24:58;;;;;;;3.63;2.20;;;10.40;99.90;;;;;;5044208;28;20036;-69
2023/04/24 05:27:24;;;;;;;6.80;2.33;;;10.40;99.90;;;;;;5037798;28;20496;-69
2023/04/24 05:29:50;;;;;;;4.43;1.80;;;10.30;99.90;;;;;;5041553;28;20084;-70
2023/04/24 05:32:16;;;;;;;4.60;2.25;;;10.30;99.90;;;;;;5037475;28;20368;-69
2023/04/24 05:34:42;;;;;;;3.67;2.42;;;10.30;99.90;;;;;;5065848;28;20043;-69
2023/04/24 05:37:09;;;;;;;6.47;1.80;;;10.30;99.90;;;;;;5039535;28;20037;-68
2023/04/24 05:39:36;;;;;;;6.07;2.72;;;10.30;99.90;;;;;;5044251;28;20045;-69
2023/04/24 05:42:03;;;;;;;5.82;2.42;;;10.30;99.90;;;;;;5044675;28;20041;-70
2023/04/24 05:44:28;;;;;;;3.17;2.25;;;10.30;99.90;;;;;;5044329;28;20135;-70
2023/04/24 05:46:55;;;;;;;5.13;2.43;;;10.30;99.90;;;;;;5044344;28;20112;-72
2023/04/24 05:49:21;;;;;;;4.07;2.55;;;10.30;99.90;;;;;;5043452;28;20044;-70
2023/04/24 05:51:49;;;;;;;4.82;2.70;;;10.30;99.90;;;;;;5044062;28;20060;-71
2023/04/24 05:54:15;;;;;;;7.57;1.77;;;10.30;99.90;;;;;;5047645;28;20044;-69
2023/04/24 05:56:41;;;;;;;4.97;2.17;;;10.30;99.90;;;;;;5046317;28;20564;-69
2023/04/24 05:59:08;;;;;;;3.53;1.80;;;10.30;99.90;;;;;;5044840;28;20087;-68
2023/04/24 06:01:33;;;;;;;3.38;1.92;;;10.30;99.90;;;;;;5049240;28;20043;-71
2023/04/24 06:03:59;;;;;;;2.43;1.60;;;10.30;99.90;;;;;;5047183;28;20037;-68
2023/04/24 06:06:25;;;;;;;4.38;1.38;;;10.30;99.90;;;;;;5050159;28;20083;-68
2023/04/24 06:08:51;;;;;;;2.78;1.52;;;10.20;99.90;;;;;;5058628;28;20044;-68
2023/04/24 06:11:17;;;;;;;2.90;1.27;;;10.20;99.90;;;;;;5042126;28;20094;-70
2023/04/24 06:13:43;;;;;;;3.58;1.20;;;10.20;99.90;;;;;;5054271;28;20425;-70
2023/04/24 06:16:08;;;;;;;2.17;1.30;;;10.20;99.90;;;;;;5035643;28;20040;-68
2023/04/24 06:18:34;;;;;;;2.97;1.50;;;10.20;99.90;;;;;;5041496;28;20036;-68
2023/04/24 06:21:00;;;;;;;3.40;1.10;;;10.20;99.90;;;;;;5043929;28;20293;-68
2023/04/24 06:23:26;;;;;;;1.93;0.90;;;10.20;99.90;;;;;;5046103;28;20318;-68
2023/04/24 06:25:51;;;;;;;2.97;1.00;;;10.20;99.90;;;;;;5047262;28;20040;-68
2023/04/24 06:28:17;;;;;;;1.60;0.73;;;10.20;99.90;;;;;;5047998;28;20040;-68
2023/04/24 06:30:43;;;;;;;1.95;0.70;;;10.20;99.90;;;;;;5026843;28;20269;-68
2023/04/24 06:33:09;;;;;;;1.15;0.75;;;10.30;99.90;;;;;;5050579;28;20072;-68
2023/04/24 06:35:36;;;;;;;2.42;0.70;;;10.30;99.90;;;;;;5044653;28;20045;-68
2023/04/24 06:38:01;;;;;;;;;;;10.20;99.90;;;;;;5050755;28;20040;-69
2023/04/24 06:40:27;;;;;;;4.95;0.93;;;10.30;99.90;;;;;;5051727;28;19943;-68
2023/04/24 06:42:52;;;;;;;1.57;1.00;;;10.20;99.90;;;;;;5058996;28;20100;-68
2023/04/24 06:45:18;;;;;;;4.77;1.10;;;10.20;99.90;;;;;;5037822;28;20040;-68
2023/04/24 06:47:47;;;;;;;3.63;1.60;;;10.20;99.90;;;;;;5039408;28;20664;-68
2023/04/24 06:50:13;;;;;;;3.47;1.40;;;10.20;99.90;;;;;;5037444;28;20093;-68
2023/04/24 06:52:38;;;;;;;2.30;1.20;;;10.20;99.90;;;;;;5047360;28;20093;-68
2023/04/24 06:55:05;;;;;;;2.97;1.30;;;10.10;99.90;;;;;;5043264;28;20044;-68
2023/04/24 06:57:31;;;;;;;2.60;1.35;;;10.10;99.90;;;;;;5041012;28;20044;-68
2023/04/24 06:59:56;;;;;;;4.80;1.55;;;10.10;99.90;;;;;;5025201;28;20047;-68
2023/04/24 07:02:22;;;;;;;5.67;1.37;;;10.10;99.90;;;;;;5035555;28;20032;-67
2023/04/24 07:04:48;;;;;;;3.20;1.57;;;10.10;99.90;;;;;;5052833;28;20243;-68
2023/04/24 07:07:14;;;;;;;4.47;1.50;;;10.10;99.90;;;;;;5024013;28;20230;-68
2023/04/24 07:09:44;;;;;;;3.03;1.40;;;10.10;99.90;;;;;;5016849;28;20278;-68
2023/04/24 07:12:13;;;;;;;3.08;1.80;;;10.00;99.90;;;;;;5046808;28;20413;-68
2023/04/24 07:14:39;;;;;;;7.05;2.10;;;9.90;99.90;;;;;;5062330;28;20036;-68
2023/04/24 07:17:06;;;;;;;6.45;2.38;;;9.90;99.90;;;;;;5065155;28;20036;-68
2023/04/24 07:19:33;;;;;;;6.22;2.90;;;10.00;99.90;;;;;;5039980;28;20044;-68
2023/04/24 07:21:59;;;;;;;6.85;3.22;;;9.90;99.90;;;;;;5030612;28;20040;-68
2023/04/24 07:24:25;;;;;;;10.37;4.83;;;9.90;99.90;;;;;;5033252;28;20375;-68
2023/04/24 07:26:52;;;;;;;10.15;5.13;;;9.90;99.90;;;;;;5066534;28;20358;-68
2023/04/24 07:29:18;;;;;;;13.88;5.53;;;9.80;99.90;;;;;;5046453;28;20409;-68
2023/04/24 07:31:44;;;;;;;10.32;5.05;;;9.80;99.90;;;;;;5041857;28;20048;-68
2023/04/24 07:34:09;;;;;;;12.60;5.27;;;9.80;99.90;;;;;;5061302;28;20508;-68
2023/04/24 07:36:35;;;;;;;9.17;4.97;;;9.80;99.90;;;;;;5046592;28;20033;-68
2023/04/24 07:39:01;;;;;;;14.15;6.03;;;9.70;99.90;;;;;;5037896;28;20370;-68
2023/04/24 07:41:27;;;;;;;14.43;5.10;;;9.80;99.90;;;;;;5043207;28;20059;-68
2023/04/24 07:43:53;;;;;;;;;;;9.70;99.90;;;;;;5063393;28;20047;-68
2023/04/24 07:46:20;;;;;;;9.63;4.30;;;9.70;99.90;;;;;;5040310;28;20374;-69
2023/04/24 07:48:47;;;;;;;10.07;5.03;;;9.70;99.90;;;;;;5061111;28;20032;-68
2023/04/24 07:51:14;;;;;;;13.23;5.18;;;9.70;99.90;;;;;;5035704;28;20049;-68
2023/04/24 07:53:41;;;;;;;11.48;5.00;;;9.70;99.90;;;;;;5045042;28;20043;-68
2023/04/24 07:56:06;;;;;;;11.82;5.40;;;9.70;99.90;;;;;;5041556;28;20048;-68
2023/04/24 07:58:32;;;;;;;12.27;5.70;;;9.70;99.90;;;;;;5059268;28;20047;-67
2023/04/24 08:00:58;;;;;;;15.10;7.53;;;9.70;99.90;;;;;;5045731;28;20557;-68
2023/04/24 08:03:24;;;;;;;12.00;6.53;;;9.60;99.90;;;;;;5039397;28;20335;-67
2023/04/24 08:05:50;;;;;;;12.40;6.60;;;9.60;99.90;;;;;;5044197;28;20040;-68
2023/04/24 08:08:16;;;;;;;15.02;7.05;;;9.60;99.90;;;;;;5029066;28;20056;-68
2023/04/24 08:10:42;;;;;;;15.73;6.63;;;9.60;99.90;;;;;;5066873;28;20291;-68
2023/04/24 08:13:08;;;;;;;14.60;7.65;;;9.50;99.90;;;;;;5047082;28;20462;-68
2023/04/24 08:15:34;;;;;;;12.17;6.50;;;9.60;99.90;;;;;;5042600;28;20044;-68
2023/04/24 08:18:00;;;;;;;11.23;5.95;;;9.50;99.90;;;;;;5064448;28;20041;-68
2023/04/24 08:20:26;;;;;;;11.95;5.82;;;9.60;99.90;;;;;;5050259;28;20487;-68
2023/04/24 08:22:51;;;;;;;10.17;5.87;;;9.60;99.90;;;;;;5062737;28;20059;-68
2023/04/24 08:25:18;;;;;;;10.33;4.80;;;9.60;99.90;;;;;;5042200;28;20040;-69
2023/04/24 08:27:44;;;;;;;8.90;4.40;;;9.60;99.90;;;;;;5043994;28;20363;-68
2023/04/24 08:30:10;;;;;;;11.57;4.20;;;9.70;99.90;;;;;;5035683;28;20055;-69
2023/04/24 08:32:36;;;;;;;6.55;3.25;;;9.70;99.90;;;;;;5061882;28;20143;-69
2023/04/24 08:35:02;;;;;;;8.55;4.00;;;9.70;99.90;;;;;;5042032;28;20556;-68
2023/04/24 08:37:28;;;;;;;16.85;4.68;;;9.70;99.90;;;;;;5066109;28;20040;-69
2023/04/24 08:39:54;;;;;;;9.90;4.53;;;9.70;99.90;;;;;;5040874;28;20451;-68
2023/04/24 08:42:20;;;;;;;11.10;4.25;;;9.80;99.90;;;;;;5057066;28;20124;-71
2023/04/24 08:44:48;;;;;;;8.05;3.80;;;9.80;99.90;;;;;;5035725;28;20117;-71
2023/04/24 08:47:15;;;;;;;10.57;3.78;;;9.80;99.90;;;;;;5143722;22;20564;-70
2023/04/24 08:49:42;;;;;;;8.38;3.45;;;9.80;99.90;;;;;;5034579;28;20033;-70
2023/04/24 08:52:08;;;;;;;7.43;3.92;;;9.90;99.90;;;;;;5043569;28;20401;-76
2023/04/24 08:54:35;;;;;;;9.25;3.90;;;9.90;99.90;;;;;;5045051;28;20060;-70
2023/04/24 08:57:03;;;;;;;10.15;3.40;;;9.90;99.90;;;;;;5040602;28;20068;-70
2023/04/24 08:59:33;;;;;;;7.03;3.33;;;10.00;99.90;;;;;;5036832;28;20499;-76
2023/04/24 09:01:59;;;;;;;9.63;3.65;;;9.90;99.90;;;;;;5039143;28;20454;-74
2023/04/24 09:04:26;;;;;;;8.05;3.10;;;9.80;99.90;;;;;;5060578;28;20352;-70
2023/04/24 09:06:56;;;;;;;6.53;2.90;;;9.80;99.90;;;;;;5050971;28;20501;-70
2023/04/24 09:09:27;;;;;;;7.85;3.30;;;9.80;99.90;;;;;;5068315;28;20104;-77
2023/04/24 09:11:57;;;;;;;5.50;2.90;;;9.80;99.90;;;;;;5032737;28;20055;-69
2023/04/24 09:14:23;;;;;;;15.73;3.55;;;9.80;99.90;;;;;;5051138;28;20049;-69
2023/04/24 09:16:49;;;;;;;7.22;3.17;;;9.80;99.90;;;;;;5029112;28;20178;-70
2023/04/24 09:19:15;;;;;;;9.85;2.67;;;9.80;99.90;;;;;;5047237;28;20551;-69
2023/04/24 09:21:44;;;;;;;8.20;3.30;;;9.80;99.90;;;;;;5047109;28;20036;-69
2023/04/24 09:24:17;;;;;;;9.68;2.97;;;9.80;99.90;;;;;;5044327;28;20281;-69
2023/04/24 09:26:43;;;;;;;4.70;1.77;;;9.90;99.90;;;;;;5046077;28;20159;-69
2023/04/24 09:29:17;;;;;;;4.97;1.70;;;9.90;99.90;;;;;;5053730;28;20540;-69
2023/04/24 09:31:46;;;;;;;8.02;2.90;;;9.90;99.90;;;;;;5046057;28;20412;-69
2023/04/24 09:34:12;;;;;;;9.20;2.50;;;10.00;99.90;;;;;;5049845;28;20032;-68
2023/04/24 09:36:40;;;;;;;7.95;2.03;;;10.10;99.90;;;;;;5047279;28;20052;-68
2023/04/24 09:39:10;;;;;;;6.03;2.60;;;10.10;99.90;;;;;;5049656;28;20500;-68
2023/04/24 09:41:44;;;;;;;8.57;2.38;;;10.20;99.90;;;;;;5069131;28;20039;-68
2023/04/24 09:44:15;;;;;;;6.28;2.63;;;10.30;99.90;;;;;;5034822;28;20059;-68
2023/04/24 09:46:42;;;;;;;9.63;2.40;;;10.30;99.90;;;;;;5037693;28;20084;-69
2023/04/24 09:49:16;;;;;;;4.00;2.00;;;10.40;99.90;;;;;;5046429;28;20041;-69
2023/04/24 09:51:42;;;;;;;10.18;2.20;;;10.50;99.90;;;;;;5031897;28;20045;-68
2023/04/24 09:54:24;;;;;;;6.43;2.78;;;10.50;99.90;;;;;;5052450;28;20264;-68
2023/04/24 09:56:50;;;;;;;7.82;2.00;;;10.50;99.90;;;;;;5031467;28;20071;-68
2023/04/24 09:59:18;;;;;;;7.35;1.85;;;10.50;99.90;;;;;;5049586;28;20059;-68
2023/04/24 10:01:44;;;;;;;8.10;1.88;;;10.40;99.90;;;;;;5028245;28;20044;-68
2023/04/24 10:04:20;;;;;;;8.02;2.00;;;10.50;99.90;;;;;;5047743;28;20101;-69
2023/04/24 10:06:51;;;;;;;4.30;1.50;;;10.50;99.90;;;;;;5046975;28;21872;-68
2023/04/24 10:09:25;;;;;;;3.30;1.30;;;10.60;99.90;;;;;;5034676;28;20045;-68
2023/04/24 10:11:53;;;;;;;5.88;1.77;;;10.60;99.90;;;;;;5051689;28;20403;-68
2023/04/24 10:14:21;;;;;;;7.95;2.00;;;10.60;99.90;;;;;;5062806;28;20043;-68
2023/04/24 10:16:48;;;;;;;7.65;1.60;;;10.60;99.90;;;;;;5039368;28;20055;-68
2023/04/24 10:19:15;;;;;;;5.32;1.75;;;10.50;99.90;;;;;;5040048;28;20048;-69
2023/04/24 10:21:42;;;;;;;7.30;1.50;;;10.50;99.90;;;;;;5040800;28;20044;-69
2023/04/24 10:24:09;;;;;;;5.80;1.77;;;10.40;99.90;;;;;;5043148;28;20469;-69
2023/04/24 10:26:35;;;;;;;7.93;1.55;;;10.30;99.90;;;;;;5062037;28;20036;-68
2023/04/24 10:29:01;;;;;;;5.32;1.35;;;10.20;99.90;;;;;;5027275;28;20350;-69
2023/04/24 10:31:30;;;;;;;3.92;1.08;;;10.30;99.90;;;;;;5041331;28;20041;-69
2023/04/24 10:33:58;;;;;;;7.38;1.48;;;10.30;99.90;;;;;;5044607;28;20080;-69
2023/04/24 10:36:26;;;;;;;5.55;1.20;;;10.30;99.90;;;;;;5049322;28;20160;-68
2023/04/24 10:38:54;;;;;;;11.70;1.30;;;10.30;99.90;;;;;;5042395;28;20127;-69
2023/04/24 10:41:23;;;;;;;7.22;1.45;;;10.30;99.90;;;;;;5058923;28;20486;-68
2023/04/24 10:44:03;;;;;;;3.00;1.20;;;10.30;99.90;;;;;;5038139;28;20044;-69
2023/04/24 10:46:30;;;;;;;5.10;1.10;;;10.30;99.90;;;;;;5041621;28;20047;-69
2023/04/24 10:48:56;;;;;;;5.75;2.08;;;10.30;99.90;;;;;;5045926;28;20304;-69
2023/04/24 10:51:23;;;;;;;7.38;1.55;;;10.40;99.90;;;;;;5045046;28;20044;-69
2023/04/24 10:53:52;;;;;;;3.50;1.35;;;10.40;99.90;;;;;;5047601;28;20056;-68
2023/04/24 10:56:18;;;;;;;5.05;1.60;;;10.50;99.90;;;;;;5042162;28;20044;-69
2023/04/24 10:58:52;;;;;;;8.45;1.40;;;10.60;99.90;;;;;;5038635;28;20563;-68
2023/04/24 11:01:26;;;;;;;5.50;1.25;;;10.70;99.90;;;;;;5061986;28;20551;-68
2023/04/24 11:03:58;;;;;;;3.15;1.00;;;10.60;99.90;;;;;;5043311;28;20074;-68
2023/04/24 11:06:35;;;;;;;3.85;1.00;;;10.70;99.90;;;;;;5044927;28;20365;-69
2023/04/24 11:09:09;;;;;;;4.50;1.08;;;10.70;99.90;;;;;;5037602;28;20048;-69
2023/04/24 11:11:37;;;;;;;3.85;0.90;;;10.80;99.90;;;;;;5027653;28;20442;-68
2023/04/24 11:14:09;;;;;;;4.10;1.15;;;10.70;99.90;;;;;;5049096;28;20488;-68
2023/04/24 11:17:07;;;;;;;6.28;1.33;;;10.70;99.90;;;;;;5039078;28;20445;-68
2023/04/24 11:19:33;;;;;;;10.80;3.03;;;10.60;99.90;;;;;;5027217;28;20044;-69
2023/04/24 11:22:02;;;;;;;4.65;1.20;;;10.50;99.90;;;;;;5057802;28;20047;-68
2023/04/24 11:24:35;;;;;;;14.35;2.05;;;10.40;99.90;;;;;;5041957;28;20040;-68
2023/04/24 11:27:04;;;;;;;5.00;1.17;;;10.30;99.90;;;;;;5043016;28;20044;-69
2023/04/24 11:29:56;;;;;;;4.43;1.23;;;10.20;99.90;;;;;;5043460;28;20134;-68
2023/04/24 11:32:37;;;;;;;7.45;1.20;;;10.00;99.90;;;;;;5042499;28;20425;-69
2023/04/24 11:35:16;;;;;;;4.68;0.93;;;10.00;99.90;;;;;;5037880;28;20045;-69
2023/04/24 11:37:50;;;;;;;1.58;0.77;;;9.80;99.90;;;;;;5061550;28;20089;-68
2023/04/24 11:40:17;;;;;;;6.22;1.27;;;9.80;99.90;;;;;;5043960;28;20370;-68
2023/04/24 11:42:44;;;;;;;5.93;1.08;;;9.70;99.90;;;;;;5038951;28;20048;-68
2023/04/24 11:45:13;;;;;;;5.10;1.25;;;9.80;99.90;;;;;;5061060;28;20044;-69
2023/04/24 11:47:39;;;;;;;2.65;1.20;;;9.80;99.90;;;;;;5046286;28;20048;-68
2023/04/24 11:50:07;;;;;;;2.88;1.20;;;9.80;99.90;;;;;;5043393;28;20131;-69
2023/04/24 11:52:37;;;;;;;6.60;1.20;;;9.80;99.90;;;;;;5048120;28;20059;-69
2023/04/24 11:55:04;;;;;;;5.50;1.00;;;9.80;99.90;;;;;;5043895;28;20048;-69
2023/04/24 11:57:34;;;;;;;2.25;1.00;;;9.90;99.90;;;;;;5057955;28;20436;-69
2023/04/24 12:00:02;;;;;;;5.80;1.10;;;9.90;99.90;;;;;;5039870;28;20127;-68
2023/04/24 12:02:27;;;;;;;4.80;1.10;;;9.90;99.90;;;;;;5042777;28;20439;-70
2023/04/24 12:04:54;;;;;;;6.10;1.00;;;10.00;99.90;;;;;;5061089;28;20064;-68
2023/04/24 12:07:20;;;;;;;;;;;10.10;99.90;;;;;;5043740;28;20076;-69
2023/04/24 12:09:57;;;;;;;3.72;0.85;;;10.10;99.90;;;;;;5041456;28;19959;-68
2023/04/24 12:12:27;;;;;;;3.85;0.90;;;10.10;99.90;;;;;;5044362;28;20067;-69
2023/04/24 12:14:54;;;;;;;3.00;0.55;;;10.10;99.90;;;;;;5046502;28;20276;-69
2023/04/24 12:17:31;;;;;;;2.17;0.60;;;10.00;99.90;;;;;;5059721;28;20286;-69
2023/04/24 12:20:02;;;;;;;3.38;0.70;;;10.10;99.90;;;;;;5054332;28;20076;-69
2023/04/24 12:22:29;;;;;;;4.43;0.68;;;10.00;99.90;;;;;;5046841;28;20036;-69
2023/04/24 12:25:00;;;;;;;6.40;0.90;;;10.10;99.90;;;;;;5026634;28;20048;-69
2023/04/24 12:27:29;;;;;;;1.55;0.85;;;10.10;99.90;;;;;;5042373;28;20043;-68
2023/04/24 12:29:59;;;;;;;5.45;0.82;;;10.20;99.90;;;;;;5042016;28;20040;-69
2023/04/24 12:32:25;;;;;;;2.17;0.75;;;10.30;99.90;;;;;;5036006;28;20028;-69
2023/04/24 12:34:55;;;;;;;4.20;0.95;;;10.30;99.90;;;;;;5026806;28;20490;-69
2023/04/24 12:37:25;;;;;;;1.48;0.60;;;10.40;99.90;;;;;;5041301;28;20140;-68
2023/04/24 12:40:08;;;;;;;5.03;0.75;;;10.40;99.90;;;;;;5019101;28;20047;-68
2023/04/24 12:42:45;;;;;;;3.05;0.65;;;10.40;99.90;;;;;;5024394;28;20478;-69
2023/04/24 12:45:12;;;;;;;2.42;0.98;;;10.50;99.90;;;;;;5045294;28;20075;-68
2023/04/24 12:47:38;;;;;;;0.88;0.30;;;10.50;99.90;;;;;;5047706;28;20052;-67